Time;durP1;ratioP1;P1;durP2;ratioP2;P2;SDS_P1;SDS_P2;PMS_P1;PMS_P2;Temp;Humidity;BMP_temperature;BMP_pressure;BME280_temperature;BME280_humidity;BME280_pressure;Samples;Min_cycle;Max_cycle;Signal;HPM_P1;HPM_P2
2023/10/16 00:00:29;;;;;;;220.70;56.60;;;;;;;;;;4972887;28;20183;-46
2023/10/16 00:02:59;;;;;;;224.23;57.80;;;;;;;;;;4972554;28;20174;-46
2023/10/16 00:05:28;;;;;;;217.43;54.17;;;;;;;;;;4972694;28;20629;-46
2023/10/16 00:07:56;;;;;;;223.18;58.22;;;;;;;;;;4972922;28;20179;-46
2023/10/16 00:10:22;;;;;;;218.35;52.72;;;;;;;;;;4972609;28;20207;-46
2023/10/16 00:12:49;;;;;;;218.53;54.07;;;;;;;;;;4972468;28;20170;-46
2023/10/16 00:15:16;;;;;;;217.15;52.00;;;;;;;;;;4972783;28;20440;-46
2023/10/16 00:17:43;;;;;;;216.88;51.10;;;;;;;;;;4972608;28;20177;-46
2023/10/16 00:20:16;;;;;;;219.88;55.20;;;;;;;;;;4972798;28;20173;-46
2023/10/16 00:22:45;;;;;;;221.32;56.00;;;;;;;;;;4972435;28;20166;-46
2023/10/16 00:25:11;;;;;;;216.52;52.78;;;;;;;;;;4972548;28;20193;-46
2023/10/16 00:27:38;;;;;;;219.27;54.90;;;;;;;;;;4972661;28;20186;-45
2023/10/16 00:30:08;;;;;;;218.15;54.58;;;;;;;;;;4972628;28;20413;-45
2023/10/16 00:32:36;;;;;;;222.60;56.38;;;;;;;;;;4972472;28;20589;-45
2023/10/16 00:35:03;;;;;;;220.77;55.38;;;;;;;;;;4972550;28;20748;-46
2023/10/16 00:37:31;;;;;;;220.93;54.58;;;;;;;;;;4972414;28;20666;-45
2023/10/16 00:39:57;;;;;;;218.93;52.13;;;;;;;;;;4974166;28;20244;-46
2023/10/16 00:42:23;;;;;;;221.88;55.65;;;;;;;;;;4976212;28;20646;-46
2023/10/16 00:44:55;;;;;;;221.73;55.17;;;;;;;;;;4976086;28;20221;-45
2023/10/16 00:47:21;;;;;;;221.98;54.40;;;;;;;;;;4976748;28;20635;-45
2023/10/16 00:49:49;;;;;;;220.57;53.83;;;;;;;;;;4976167;28;20232;-47
2023/10/16 00:52:15;;;;;;;220.95;53.72;;;;;;;;;;4976111;28;20468;-45
2023/10/16 00:54:42;;;;;;;223.73;55.25;;;;;;;;;;4975894;28;20198;-45
2023/10/16 00:57:10;;;;;;;219.90;54.20;;;;;;;;;;4976059;28;20238;-46
2023/10/16 00:59:36;;;;;;;222.38;54.92;;;;;;;;;;4975992;28;20173;-46
2023/10/16 01:04:35;;;;;;;224.18;57.78;;;;;;;;;;4974978;28;20278;-46
2023/10/16 01:07:01;;;;;;;225.82;59.78;;;;;;;;;;4975412;28;20240;-46
2023/10/16 01:09:33;;;;;;;221.60;55.15;;;;;;;;;;4975157;28;20206;-46
2023/10/16 01:12:00;;;;;;;219.93;53.60;;;;;;;;;;4975799;28;20773;-45
2023/10/16 01:14:26;;;;;;;221.80;55.30;;;;;;;;;;4975490;28;20273;-45
2023/10/16 01:16:54;;;;;;;222.63;58.30;;;;;;;;;;4975618;28;20193;-46
2023/10/16 01:19:20;;;;;;;221.63;55.80;;;;;;;;;;4975651;28;20205;-45
2023/10/16 01:21:46;;;;;;;222.80;55.88;;;;;;;;;;4975614;28;20178;-46
2023/10/16 01:24:12;;;;;;;220.32;56.03;;;;;;;;;;4975330;28;20198;-47
2023/10/16 01:26:42;;;;;;;217.93;54.10;;;;;;;;;;4975496;28;20190;-46
2023/10/16 01:29:09;;;;;;;226.23;66.82;;;;;;;;;;4975624;28;20170;-46
2023/10/16 01:31:36;;;;;;;229.43;72.72;;;;;;;;;;4975317;28;20222;-45
2023/10/16 01:34:02;;;;;;;246.05;103.18;;;;;;;;;;4975242;28;20178;-45
2023/10/16 01:36:30;;;;;;;220.50;59.00;;;;;;;;;;4975539;28;20522;-45
2023/10/16 01:39:00;;;;;;;218.75;55.80;;;;;;;;;;4975300;28;20171;-46
2023/10/16 01:41:26;;;;;;;221.50;59.38;;;;;;;;;;4974044;28;20681;-45
2023/10/16 01:43:52;;;;;;;220.02;55.17;;;;;;;;;;4974898;28;20690;-46
2023/10/16 01:46:18;;;;;;;232.90;77.85;;;;;;;;;;4975255;28;20174;-45
2023/10/16 01:48:46;;;;;;;232.47;85.83;;;;;;;;;;4975132;28;20767;-46
2023/10/16 01:51:18;;;;;;;218.18;54.17;;;;;;;;;;4974368;28;20460;-47
2023/10/16 01:53:44;;;;;;;222.25;56.53;;;;;;;;;;4967274;28;20190;-46
2023/10/16 01:56:14;;;;;;;217.80;53.40;;;;;;;;;;4975186;28;20171;-46
2023/10/16 01:58:44;;;;;;;218.95;54.83;;;;;;;;;;4974685;28;20417;-46
2023/10/16 02:01:20;;;;;;;222.65;59.17;;;;;;;;;;4974994;28;20184;-47
2023/10/16 02:03:47;;;;;;;219.88;54.97;;;;;;;;;;4969563;28;20194;-47
2023/10/16 02:06:14;;;;;;;219.02;54.72;;;;;;;;;;4974689;28;20669;-46
2023/10/16 02:08:40;;;;;;;219.93;55.40;;;;;;;;;;4974774;28;20245;-46
2023/10/16 02:11:06;;;;;;;218.70;54.45;;;;;;;;;;4974675;28;20265;-47
2023/10/16 02:13:35;;;;;;;218.25;55.00;;;;;;;;;;4974487;28;20213;-47
2023/10/16 02:16:06;;;;;;;215.93;52.60;;;;;;;;;;4974717;28;20249;-46
2023/10/16 02:18:40;;;;;;;217.60;54.05;;;;;;;;;;4974692;28;20541;-46
2023/10/16 02:21:11;;;;;;;214.68;51.78;;;;;;;;;;4975152;28;20176;-46
2023/10/16 02:23:37;;;;;;;218.32;54.42;;;;;;;;;;4974115;28;20341;-47
2023/10/16 02:26:05;;;;;;;217.53;53.63;;;;;;;;;;4974522;28;20261;-47
2023/10/16 02:28:32;;;;;;;215.93;52.38;;;;;;;;;;4974368;28;20429;-47
2023/10/16 02:31:10;;;;;;;214.68;51.78;;;;;;;;;;4974374;28;20195;-47
2023/10/16 02:33:36;;;;;;;215.43;52.38;;;;;;;;;;4974026;28;20219;-47
2023/10/16 02:36:02;;;;;;;215.40;51.55;;;;;;;;;;4974221;28;20181;-47
2023/10/16 02:38:29;;;;;;;216.48;53.97;;;;;;;;;;4974188;28;20170;-47
2023/10/16 02:41:03;;;;;;;215.95;52.47;;;;;;;;;;4974313;28;20213;-47
2023/10/16 02:43:36;;;;;;;218.23;53.97;;;;;;;;;;4973868;28;20229;-47
2023/10/16 02:46:03;;;;;;;216.95;53.75;;;;;;;;;;4974224;28;20175;-47
2023/10/16 02:48:30;;;;;;;213.50;51.17;;;;;;;;;;4973986;28;20232;-46
2023/10/16 02:50:59;;;;;;;216.93;53.45;;;;;;;;;;4973998;28;20578;-46
2023/10/16 02:53:25;;;;;;;216.80;52.42;;;;;;;;;;4973798;28;20257;-46
2023/10/16 02:56:03;;;;;;;214.30;51.60;;;;;;;;;;4973966;28;20222;-47
2023/10/16 02:58:29;;;;;;;218.27;53.80;;;;;;;;;;4973785;28;20175;-46
2023/10/16 03:00:55;;;;;;;217.68;53.15;;;;;;;;;;4974276;28;20546;-46
2023/10/16 03:03:24;;;;;;;223.80;58.92;;;;;;;;;;4972462;28;20588;-47
2023/10/16 03:05:50;;;;;;;215.63;52.75;;;;;;;;;;4973737;28;20252;-47
2023/10/16 03:08:19;;;;;;;221.02;57.03;;;;;;;;;;4973779;28;20562;-46
2023/10/16 03:10:45;;;;;;;221.02;57.35;;;;;;;;;;4966620;28;20666;-46
2023/10/16 03:13:13;;;;;;;219.60;55.90;;;;;;;;;;4973388;28;20178;-47
2023/10/16 03:15:46;;;;;;;220.88;58.08;;;;;;;;;;4973437;28;20595;-46
2023/10/16 03:18:22;;;;;;;219.10;55.65;;;;;;;;;;4973542;28;20175;-47
2023/10/16 03:20:48;;;;;;;219.90;55.05;;;;;;;;;;4966079;28;20176;-46
2023/10/16 03:23:14;;;;;;;218.02;54.25;;;;;;;;;;4973179;28;20176;-47
2023/10/16 03:28:09;;;;;;;214.15;54.30;;;;;;;;;;4973298;28;20583;-47
2023/10/16 03:30:35;;;;;;;212.05;51.88;;;;;;;;;;4973211;28;20208;-46
2023/10/16 03:33:04;;;;;;;218.67;56.37;;;;;;;;;;4972979;28;20177;-47
2023/10/16 03:35:31;;;;;;;214.48;51.85;;;;;;;;;;4973376;28;20436;-46
2023/10/16 03:37:57;;;;;;;220.88;55.42;;;;;;;;;;4973282;28;20544;-46
2023/10/16 03:40:27;;;;;;;221.57;55.30;;;;;;;;;;4973249;28;20184;-46
2023/10/16 03:42:53;;;;;;;221.57;57.65;;;;;;;;;;4972792;28;20832;-46
2023/10/16 03:45:21;;;;;;;216.70;51.97;;;;;;;;;;4973149;28;20197;-47
2023/10/16 03:47:53;;;;;;;214.75;52.00;;;;;;;;;;4965487;28;20175;-46
2023/10/16 03:50:24;;;;;;;215.80;52.90;;;;;;;;;;4972989;28;20201;-46
2023/10/16 03:52:50;;;;;;;224.98;59.47;;;;;;;;;;4972910;28;20174;-46
2023/10/16 03:55:22;;;;;;;216.38;53.28;;;;;;;;;;4972845;28;20203;-46
2023/10/16 03:57:52;;;;;;;214.57;52.42;;;;;;;;;;4965494;28;20197;-47
2023/10/16 04:00:24;;;;;;;212.15;51.53;;;;;;;;;;4973234;28;20165;-46
2023/10/16 04:02:51;;;;;;;224.40;59.67;;;;;;;;;;4972037;28;20166;-46
2023/10/16 04:08:02;;;;;;;213.88;51.22;;;;;;;;;;4968540;28;20254;-46
2023/10/16 04:10:28;;;;;;;215.10;52.53;;;;;;;;;;4972762;28;20233;-47
2023/10/16 04:12:55;;;;;;;222.00;57.25;;;;;;;;;;4972464;28;20186;-48
2023/10/16 04:21:37;;;;;;;217.07;52.10;;;;;;;;;;4965947;28;20193;-46
2023/10/16 04:23:57;;;;;;;218.95;52.90;;;;;;;;;;4972220;28;20303;-46
2023/10/16 04:31:44;;;;;;;224.35;56.78;;;;;;;;;;4972710;28;20335;-47
2023/10/16 04:36:52;;;;;;;217.23;52.90;;;;;;;;;;4965309;28;20597;-47
2023/10/16 04:45:24;;;;;;;223.65;55.88;;;;;;;;;;4970989;28;20209;-47
2023/10/16 05:03:24;;;;;;;216.30;54.10;;;;;;;;;;4972140;28;20269;-45
2023/10/16 05:11:36;;;;;;;215.77;54.03;;;;;;;;;;4972259;28;20240;-45
2023/10/16 05:19:52;;;;;;;215.10;52.63;;;;;;;;;;4972517;28;20691;-44
2023/10/16 06:14:34;;;;;;;213.32;52.78;;;;;;;;;;4974251;28;20236;-45
2023/10/16 06:17:00;;;;;;;214.90;54.90;;;;;;;;;;4974640;28;20170;-45
2023/10/16 06:19:26;;;;;;;215.40;53.10;;;;;;;;;;4974377;28;20548;-46
2023/10/16 06:21:56;;;;;;;215.77;54.10;;;;;;;;;;4974828;28;20471;-45
2023/10/16 06:24:32;;;;;;;216.10;54.97;;;;;;;;;;4974252;28;20430;-46
2023/10/16 06:27:08;;;;;;;212.25;52.63;;;;;;;;;;4974623;28;20170;-45
2023/10/16 06:29:34;;;;;;;216.27;54.42;;;;;;;;;;4974525;28;20568;-46
2023/10/16 06:32:18;;;;;;;213.33;52.77;;;;;;;;;;4974306;28;20204;-46
2023/10/16 06:34:45;;;;;;;216.95;52.25;;;;;;;;;;4974113;28;20952;-46
2023/10/16 06:37:16;;;;;;;216.32;55.45;;;;;;;;;;4974041;28;20170;-46
2023/10/16 06:39:42;;;;;;;219.23;56.95;;;;;;;;;;4974213;28;20662;-45
2023/10/16 06:42:14;;;;;;;220.98;56.15;;;;;;;;;;4974418;28;20645;-45
2023/10/16 06:44:42;;;;;;;219.07;54.25;;;;;;;;;;4974193;28;20566;-45
2023/10/16 06:47:12;;;;;;;220.77;55.22;;;;;;;;;;4974130;28;20272;-46
2023/10/16 06:49:38;;;;;;;222.23;56.83;;;;;;;;;;4974182;28;20166;-46
2023/10/16 06:52:05;;;;;;;220.88;56.38;;;;;;;;;;4973899;28;20276;-45
2023/10/16 06:54:40;;;;;;;220.98;54.38;;;;;;;;;;4973505;28;20562;-46
2023/10/16 06:57:12;;;;;;;219.13;53.83;;;;;;;;;;4974071;28;20633;-45
2023/10/16 06:59:45;;;;;;;220.48;55.30;;;;;;;;;;4974119;28;20186;-45
2023/10/16 07:02:15;;;;;;;219.98;55.88;;;;;;;;;;4973880;28;20175;-45
2023/10/16 07:04:42;;;;;;;222.88;55.97;;;;;;;;;;4973439;28;20199;-45
2023/10/16 07:07:18;;;;;;;221.27;56.40;;;;;;;;;;4973656;28;20220;-45
2023/10/16 07:09:47;;;;;;;217.73;52.78;;;;;;;;;;4973773;28;20170;-45
2023/10/16 07:12:13;;;;;;;217.70;53.42;;;;;;;;;;4973634;28;20199;-45
2023/10/16 07:14:39;;;;;;;220.20;54.45;;;;;;;;;;4973334;28;20281;-46
2023/10/16 07:17:05;;;;;;;220.37;56.20;;;;;;;;;;4971930;28;20263;-45
2023/10/16 07:19:31;;;;;;;221.57;55.70;;;;;;;;;;4972191;28;20417;-46
2023/10/16 07:22:00;;;;;;;226.40;58.53;;;;;;;;;;4972058;28;20418;-45
2023/10/16 07:24:26;;;;;;;223.85;57.17;;;;;;;;;;4972815;28;20443;-45
2023/10/16 07:26:52;;;;;;;225.38;57.10;;;;;;;;;;4972976;28;20266;-45
2023/10/16 07:29:21;;;;;;;229.37;60.97;;;;;;;;;;4971583;28;20269;-46
2023/10/16 07:31:49;;;;;;;225.32;59.83;;;;;;;;;;4965403;28;20466;-45
2023/10/16 07:34:15;;;;;;;222.50;57.38;;;;;;;;;;4973041;28;20195;-45
2023/10/16 07:36:42;;;;;;;221.30;56.97;;;;;;;;;;4967833;28;20323;-45
2023/10/16 07:39:08;;;;;;;221.18;55.97;;;;;;;;;;4973195;28;20165;-45
2023/10/16 07:41:37;;;;;;;226.50;59.55;;;;;;;;;;4972102;28;20234;-45
2023/10/16 07:44:04;;;;;;;224.45;56.85;;;;;;;;;;4972878;28;20192;-45
2023/10/16 07:46:30;;;;;;;226.45;58.28;;;;;;;;;;4972971;28;20538;-44
2023/10/16 07:49:01;;;;;;;224.93;59.38;;;;;;;;;;4972529;28;20191;-45
2023/10/16 07:51:27;;;;;;;224.75;59.15;;;;;;;;;;4972967;28;20718;-44
2023/10/16 07:53:56;;;;;;;224.82;60.20;;;;;;;;;;4972610;28;20698;-45
2023/10/16 07:56:25;;;;;;;220.73;54.30;;;;;;;;;;4972977;28;20184;-45
2023/10/16 07:58:56;;;;;;;225.68;58.67;;;;;;;;;;4972751;28;20188;-45
2023/10/16 08:04:19;;;;;;;221.77;56.40;;;;;;;;;;4967813;28;20211;-46
2023/10/16 08:06:45;;;;;;;223.52;56.17;;;;;;;;;;4972944;28;20196;-45
2023/10/16 08:11:58;;;;;;;228.27;58.42;;;;;;;;;;4969360;28;20417;-46
2023/10/16 08:14:31;;;;;;;224.20;57.53;;;;;;;;;;4972537;28;20195;-45
2023/10/16 08:17:04;;;;;;;224.80;56.83;;;;;;;;;;4972740;28;20184;-45
2023/10/16 08:19:34;;;;;;;223.77;56.40;;;;;;;;;;4972772;28;20513;-46
2023/10/16 08:22:03;;;;;;;226.27;58.92;;;;;;;;;;4972611;28;20177;-46
2023/10/16 08:24:30;;;;;;;228.52;59.72;;;;;;;;;;4972386;28;20200;-45
2023/10/16 08:27:10;;;;;;;225.65;57.92;;;;;;;;;;4972725;28;20184;-44
2023/10/16 08:29:51;;;;;;;224.25;57.75;;;;;;;;;;4972778;28;20208;-45
2023/10/16 08:35:01;;;;;;;228.50;60.97;;;;;;;;;;4966975;28;20208;-45
2023/10/16 08:37:31;;;;;;;227.15;58.63;;;;;;;;;;4970814;28;20175;-46
2023/10/16 08:39:57;;;;;;;228.20;60.97;;;;;;;;;;4972631;28;20173;-46
2023/10/16 08:42:23;;;;;;;227.07;59.60;;;;;;;;;;4972507;28;20409;-47
2023/10/16 08:44:51;;;;;;;224.23;59.10;;;;;;;;;;4972188;28;20245;-46
2023/10/16 08:47:20;;;;;;;225.88;59.55;;;;;;;;;;4972616;28;20413;-46
2023/10/16 08:49:53;;;;;;;226.13;59.72;;;;;;;;;;4964813;28;20169;-45
2023/10/16 08:52:21;;;;;;;225.95;58.50;;;;;;;;;;4972457;28;20197;-45
2023/10/16 08:57:18;;;;;;;227.70;61.97;;;;;;;;;;4972439;28;20184;-46
2023/10/16 08:59:47;;;;;;;229.90;63.35;;;;;;;;;;4971309;28;20178;-46
2023/10/16 09:02:14;;;;;;;227.55;60.83;;;;;;;;;;4975950;28;20166;-44
2023/10/16 09:04:43;;;;;;;226.13;59.75;;;;;;;;;;4975673;28;20208;-45
2023/10/16 09:07:12;;;;;;;226.07;59.55;;;;;;;;;;4975958;28;20182;-46
2023/10/16 09:09:41;;;;;;;227.70;60.67;;;;;;;;;;4975870;28;20183;-46
2023/10/16 09:12:10;;;;;;;227.93;60.58;;;;;;;;;;4975815;28;20208;-47
2023/10/16 09:14:40;;;;;;;228.82;63.72;;;;;;;;;;4975665;28;20244;-46
2023/10/16 09:17:06;;;;;;;228.77;62.08;;;;;;;;;;4975919;28;20669;-46
2023/10/16 09:19:34;;;;;;;229.63;62.25;;;;;;;;;;4975792;28;20210;-47
2023/10/16 09:22:09;;;;;;;234.15;65.85;;;;;;;;;;4975776;28;20637;-46
2023/10/16 09:24:35;;;;;;;232.20;63.45;;;;;;;;;;4975390;28;20284;-45
2023/10/16 09:27:16;;;;;;;230.20;62.30;;;;;;;;;;4975671;28;20186;-46
2023/10/16 09:29:53;;;;;;;229.43;63.33;;;;;;;;;;4975655;28;20514;-46
2023/10/16 09:32:22;;;;;;;233.50;67.28;;;;;;;;;;4974461;28;20570;-45
2023/10/16 09:34:51;;;;;;;232.07;68.65;;;;;;;;;;4971057;28;20201;-45
2023/10/16 09:37:24;;;;;;;233.15;69.20;;;;;;;;;;4970882;28;20236;-46
2023/10/16 09:39:52;;;;;;;235.57;68.78;;;;;;;;;;4966095;28;20252;-46
2023/10/16 09:42:24;;;;;;;232.52;66.60;;;;;;;;;;4975185;28;20173;-46
2023/10/16 09:44:59;;;;;;;238.17;74.27;;;;;;;;;;4971342;28;20195;-46
2023/10/16 09:47:26;;;;;;;237.47;72.10;;;;;;;;;;4975026;28;20424;-47
2023/10/16 09:49:53;;;;;;;236.47;73.27;;;;;;;;;;4975186;28;20500;-47
2023/10/16 09:52:20;;;;;;;238.20;76.67;;;;;;;;;;4975219;28;20496;-47
2023/10/16 09:54:48;;;;;;;236.27;74.93;;;;;;;;;;4966873;28;20441;-46
2023/10/16 09:57:18;;;;;;;241.13;82.67;;;;;;;;;;4975347;28;20412;-47
2023/10/16 09:59:44;;;;;;;242.43;83.97;;;;;;;;;;4974640;28;20779;-47
2023/10/16 10:02:17;;;;;;;245.03;89.27;;;;;;;;;;4975100;28;20901;-46
2023/10/16 10:04:49;;;;;;;244.60;87.97;;;;;;;;;;4974850;28;20427;-47
2023/10/16 10:07:19;;;;;;;239.43;82.67;;;;;;;;;;4975152;28;20802;-46
2023/10/16 10:09:47;;;;;;;244.43;89.03;;;;;;;;;;4973674;28;20444;-46
2023/10/16 10:12:53;;;;;;;243.47;89.17;;;;;;;;;;4971902;28;20471;-47
2023/10/16 10:15:35;;;;;;;243.17;91.50;;;;;;;;;;4972543;28;20471;-46
2023/10/16 10:20:48;;;;;;;245.73;92.37;;;;;;;;;;4966859;28;20416;-47
2023/10/16 10:23:15;;;;;;;243.93;90.17;;;;;;;;;;4974530;28;20443;-47
2023/10/16 10:25:42;;;;;;;247.17;92.80;;;;;;;;;;4974880;28;20406;-46
2023/10/16 10:28:22;;;;;;;243.00;88.07;;;;;;;;;;4974706;28;20437;-47
2023/10/16 10:30:49;;;;;;;244.73;88.80;;;;;;;;;;4967074;28;20913;-47
2023/10/16 10:33:36;;;;;;;241.10;86.00;;;;;;;;;;4974153;28;20398;-46
2023/10/16 10:36:21;;;;;;;244.13;90.13;;;;;;;;;;4969044;28;20494;-46
2023/10/16 10:38:47;;;;;;;242.73;89.33;;;;;;;;;;4981629;28;20797;-46
2023/10/16 10:41:13;;;;;;;244.30;90.47;;;;;;;;;;4974501;28;20408;-46
2023/10/16 10:43:49;;;;;;;245.73;92.23;;;;;;;;;;4973994;28;20444;-45
2023/10/16 10:46:28;;;;;;;246.40;92.97;;;;;;;;;;4974447;28;20904;-47
2023/10/16 10:48:54;;;;;;;246.17;93.53;;;;;;;;;;4974189;28;20413;-46
2023/10/16 10:51:21;;;;;;;245.03;92.87;;;;;;;;;;4974242;28;20477;-46
2023/10/16 10:54:06;;;;;;;246.37;96.33;;;;;;;;;;4974581;28;20941;-47
2023/10/16 10:56:41;;;;;;;243.83;90.47;;;;;;;;;;4974114;28;20413;-48
2023/10/16 10:59:11;;;;;;;242.47;90.77;;;;;;;;;;4973970;28;20417;-48
2023/10/16 11:01:51;;;;;;;247.87;96.73;;;;;;;;;;4973764;28;20480;-48
2023/10/16 11:04:17;;;;;;;241.23;89.60;;;;;;;;;;4973838;28;20437;-48
2023/10/16 11:06:49;;;;;;;242.10;89.77;;;;;;;;;;4973887;28;20458;-47
2023/10/16 11:09:18;;;;;;;244.47;90.57;;;;;;;;;;4974048;28;20889;-48
2023/10/16 11:11:47;;;;;;;241.77;89.53;;;;;;;;;;4973846;28;20490;-48
2023/10/16 11:14:14;;;;;;;240.07;87.63;;;;;;;;;;4973601;28;20442;-46
2023/10/16 11:16:48;;;;;;;242.43;91.93;;;;;;;;;;4973180;28;20418;-47
2023/10/16 11:19:28;;;;;;;242.40;90.27;;;;;;;;;;4973923;28;20411;-47
2023/10/16 11:21:56;;;;;;;243.40;92.10;;;;;;;;;;4974062;28;21094;-48
2023/10/16 11:24:24;;;;;;;246.47;92.87;;;;;;;;;;4970674;28;20441;-47
2023/10/16 11:26:50;;;;;;;245.70;95.17;;;;;;;;;;4972399;28;20416;-47
2023/10/16 11:29:19;;;;;;;245.80;96.03;;;;;;;;;;4976656;28;20458;-47
2023/10/16 11:31:45;;;;;;;249.77;97.47;;;;;;;;;;4959069;28;20461;-47
2023/10/16 11:34:14;;;;;;;248.37;97.93;;;;;;;;;;4971499;28;20413;-48
2023/10/16 11:36:40;;;;;;;243.37;92.83;;;;;;;;;;4973477;28;20424;-48
2023/10/16 11:39:07;;;;;;;247.93;97.10;;;;;;;;;;4972692;28;20778;-47
2023/10/16 11:41:33;;;;;;;243.57;93.17;;;;;;;;;;4973033;28;20413;-47
2023/10/16 11:44:05;;;;;;;246.53;98.23;;;;;;;;;;4972995;28;20495;-48
2023/10/16 11:46:33;;;;;;;251.63;103.47;;;;;;;;;;4973236;28;20919;-48
2023/10/16 11:49:17;;;;;;;253.47;105.43;;;;;;;;;;4969414;28;20460;-47
2023/10/16 11:51:50;;;;;;;249.87;101.23;;;;;;;;;;4962025;28;20471;-48
2023/10/16 11:54:30;;;;;;;246.30;98.17;;;;;;;;;;4972823;28;20430;-47
2023/10/16 11:56:59;;;;;;;249.63;101.57;;;;;;;;;;4971944;28;20813;-47
2023/10/16 11:59:25;;;;;;;246.77;100.07;;;;;;;;;;4972023;28;20409;-47
2023/10/16 12:01:52;;;;;;;250.07;100.07;;;;;;;;;;4971942;28;20909;-47
2023/10/16 12:04:22;;;;;;;244.97;94.30;;;;;;;;;;4972420;28;20439;-48
2023/10/16 12:06:48;;;;;;;245.50;97.43;;;;;;;;;;4966733;28;20429;-48
2023/10/16 12:09:21;;;;;;;245.07;95.43;;;;;;;;;;4972759;28;20444;-48
2023/10/16 12:11:48;;;;;;;244.83;95.63;;;;;;;;;;4965228;28;20975;-48
2023/10/16 12:14:14;;;;;;;247.00;97.57;;;;;;;;;;4971760;28;20429;-48
2023/10/16 12:16:45;;;;;;;246.67;97.03;;;;;;;;;;4972834;28;20421;-48
2023/10/16 12:19:11;;;;;;;243.87;92.83;;;;;;;;;;4973060;28;20405;-48
2023/10/16 12:21:37;;;;;;;241.50;89.20;;;;;;;;;;4972864;28;20479;-47
2023/10/16 12:24:04;;;;;;;242.67;89.57;;;;;;;;;;4972495;28;20436;-48
2023/10/16 12:26:30;;;;;;;239.33;84.73;;;;;;;;;;4972874;28;20414;-48
2023/10/16 12:28:59;;;;;;;238.30;82.03;;;;;;;;;;4972726;28;20416;-48
2023/10/16 12:31:25;;;;;;;238.73;81.47;;;;;;;;;;4967676;28;20464;-47
2023/10/16 12:33:51;;;;;;;244.17;89.13;;;;;;;;;;4972232;28;20433;-48
2023/10/16 12:36:18;;;;;;;241.67;84.47;;;;;;;;;;4973579;28;20420;-47
2023/10/16 12:38:44;;;;;;;241.63;82.53;;;;;;;;;;4975311;28;20413;-47
2023/10/16 12:41:10;;;;;;;236.80;76.07;;;;;;;;;;4975698;28;20435;-48
2023/10/16 12:43:40;;;;;;;240.17;82.97;;;;;;;;;;4974716;28;20504;-47
2023/10/16 12:46:07;;;;;;;235.37;76.87;;;;;;;;;;4976271;28;20897;-47
2023/10/16 12:48:33;;;;;;;236.43;76.93;;;;;;;;;;4976550;28;20987;-47
2023/10/16 12:51:07;;;;;;;237.00;79.90;;;;;;;;;;4976364;28;20543;-48
2023/10/16 12:53:33;;;;;;;236.87;78.50;;;;;;;;;;4976002;28;20837;-47
2023/10/16 12:55:59;;;;;;;234.93;75.97;;;;;;;;;;4976439;28;20398;-48
2023/10/16 12:58:26;;;;;;;234.27;76.73;;;;;;;;;;4976006;28;20772;-47
2023/10/16 13:00:53;;;;;;;235.57;76.27;;;;;;;;;;4976142;28;20842;-47
2023/10/16 13:03:21;;;;;;;234.87;77.93;;;;;;;;;;4975563;28;20920;-48
2023/10/16 13:05:48;;;;;;;237.03;80.17;;;;;;;;;;4976089;28;20438;-48
2023/10/16 13:08:17;;;;;;;233.80;73.87;;;;;;;;;;4976179;28;20422;-47
2023/10/16 13:10:43;;;;;;;234.40;74.30;;;;;;;;;;4976070;28;20858;-48
2023/10/16 13:13:09;;;;;;;233.80;73.67;;;;;;;;;;4975525;28;20411;-47
2023/10/16 13:15:35;;;;;;;236.00;77.93;;;;;;;;;;4975910;28;20431;-48
2023/10/16 13:18:02;;;;;;;234.40;74.97;;;;;;;;;;4975964;28;20396;-47
2023/10/16 13:20:28;;;;;;;235.20;76.73;;;;;;;;;;4976016;28;20456;-46
2023/10/16 13:22:55;;;;;;;240.40;80.47;;;;;;;;;;4975567;28;20555;-47
2023/10/16 13:25:23;;;;;;;235.37;75.80;;;;;;;;;;4975720;28;20440;-47
2023/10/16 13:27:49;;;;;;;236.67;76.03;;;;;;;;;;4975610;28;20920;-47
2023/10/16 13:30:16;;;;;;;235.43;77.87;;;;;;;;;;4975640;28;20982;-48
2023/10/16 13:32:46;;;;;;;241.90;86.50;;;;;;;;;;4975458;28;20487;-48
2023/10/16 13:35:12;;;;;;;237.67;81.67;;;;;;;;;;4975585;28;20555;-46
2023/10/16 13:37:39;;;;;;;237.40;77.80;;;;;;;;;;4975529;28;20420;-47
2023/10/16 13:40:15;;;;;;;235.37;79.73;;;;;;;;;;4975591;28;20393;-47
2023/10/16 13:42:41;;;;;;;237.37;79.07;;;;;;;;;;4975358;28;20420;-46
2023/10/16 13:45:12;;;;;;;235.33;78.90;;;;;;;;;;4975341;28;20465;-47
2023/10/16 13:47:42;;;;;;;238.60;82.13;;;;;;;;;;4974388;28;20913;-47
2023/10/16 13:50:09;;;;;;;235.40;77.13;;;;;;;;;;4975384;28;20423;-47
2023/10/16 13:52:36;;;;;;;234.20;76.87;;;;;;;;;;4975098;28;21022;-47
2023/10/16 13:55:11;;;;;;;234.70;76.87;;;;;;;;;;4975094;28;20854;-48
2023/10/16 13:57:39;;;;;;;237.93;80.70;;;;;;;;;;4975339;28;20417;-47
2023/10/16 14:00:06;;;;;;;235.73;76.30;;;;;;;;;;4975219;28;20402;-47
2023/10/16 14:02:36;;;;;;;236.27;79.67;;;;;;;;;;4975166;28;20408;-48
2023/10/16 14:05:06;;;;;;;233.07;73.43;;;;;;;;;;4974859;28;20524;-47
2023/10/16 14:07:32;;;;;;;236.93;79.23;;;;;;;;;;4974932;28;20441;-47
2023/10/16 14:09:58;;;;;;;235.67;75.80;;;;;;;;;;4975054;28;20421;-48
2023/10/16 14:12:25;;;;;;;238.57;83.30;;;;;;;;;;4974856;28;20465;-48
2023/10/16 14:14:51;;;;;;;234.93;78.47;;;;;;;;;;4974728;28;20440;-47
2023/10/16 14:17:18;;;;;;;242.43;83.77;;;;;;;;;;4975194;28;20510;-47
2023/10/16 14:19:47;;;;;;;237.77;81.10;;;;;;;;;;4974751;28;20401;-48
2023/10/16 14:22:15;;;;;;;234.77;76.50;;;;;;;;;;4974778;28;20496;-46
2023/10/16 14:24:42;;;;;;;233.13;77.40;;;;;;;;;;4974499;28;20436;-46
2023/10/16 14:27:08;;;;;;;235.80;81.27;;;;;;;;;;4974731;28;20412;-47
2023/10/16 14:29:39;;;;;;;236.90;80.30;;;;;;;;;;4974712;28;20595;-48
2023/10/16 14:32:05;;;;;;;234.90;78.77;;;;;;;;;;4974534;28;20461;-47
2023/10/16 14:34:31;;;;;;;237.37;80.30;;;;;;;;;;4974069;28;20480;-48
2023/10/16 14:36:58;;;;;;;232.10;75.97;;;;;;;;;;4974468;28;20416;-47
2023/10/16 14:39:27;;;;;;;236.27;79.63;;;;;;;;;;4974579;28;20405;-47
2023/10/16 14:41:54;;;;;;;235.03;78.10;;;;;;;;;;4974432;28;20429;-48
2023/10/16 14:44:20;;;;;;;234.27;78.43;;;;;;;;;;4974143;28;20433;-47
2023/10/16 14:46:46;;;;;;;235.20;78.37;;;;;;;;;;4974369;28;20417;-47
2023/10/16 14:49:12;;;;;;;238.10;81.80;;;;;;;;;;4974260;28;20413;-47
2023/10/16 14:51:39;;;;;;;235.13;78.13;;;;;;;;;;4974159;28;20467;-47
2023/10/16 14:54:06;;;;;;;234.77;76.97;;;;;;;;;;4973964;28;20440;-47
2023/10/16 14:56:36;;;;;;;235.33;78.53;;;;;;;;;;4974061;28;20574;-48
2023/10/16 14:59:02;;;;;;;235.20;79.17;;;;;;;;;;4973976;28;20407;-48
2023/10/16 15:01:28;;;;;;;237.40;79.93;;;;;;;;;;4973976;28;20416;-48
2023/10/16 15:03:56;;;;;;;240.17;85.87;;;;;;;;;;4973931;28;20552;-47
2023/10/16 15:06:22;;;;;;;234.67;78.10;;;;;;;;;;4973842;28;20429;-47
2023/10/16 15:08:48;;;;;;;238.03;81.40;;;;;;;;;;4973976;28;20464;-48
2023/10/16 15:11:14;;;;;;;235.20;77.33;;;;;;;;;;4973858;28;20457;-48
2023/10/16 15:13:45;;;;;;;232.63;75.73;;;;;;;;;;4973462;28;20432;-48
2023/10/16 15:16:11;;;;;;;237.97;82.40;;;;;;;;;;4973674;28;21202;-48
2023/10/16 15:18:40;;;;;;;235.27;77.40;;;;;;;;;;4967253;28;20426;-47
2023/10/16 15:21:09;;;;;;;237.53;79.07;;;;;;;;;;4972595;28;20440;-47
2023/10/16 15:23:35;;;;;;;233.83;73.83;;;;;;;;;;4971730;28;20440;-48
2023/10/16 15:26:02;;;;;;;234.33;74.87;;;;;;;;;;4973602;28;20420;-48
2023/10/16 15:28:28;;;;;;;235.97;75.77;;;;;;;;;;4972596;28;20782;-47
2023/10/16 15:30:54;;;;;;;235.90;76.13;;;;;;;;;;4972705;28;20837;-47
2023/10/16 15:33:21;;;;;;;231.47;71.90;;;;;;;;;;4973173;28;20417;-48
2023/10/16 15:35:54;;;;;;;234.50;73.77;;;;;;;;;;4973464;28;20413;-48
2023/10/16 15:38:28;;;;;;;234.57;73.33;;;;;;;;;;4973263;28;20818;-47
2023/10/16 15:40:55;;;;;;;234.70;71.27;;;;;;;;;;4973325;28;20478;-47
2023/10/16 15:43:21;;;;;;;234.77;72.37;;;;;;;;;;4973033;28;20718;-48
2023/10/16 15:45:47;;;;;;;234.97;74.20;;;;;;;;;;4973232;28;20412;-47
2023/10/16 15:48:14;;;;;;;231.10;69.50;;;;;;;;;;4973246;28;20420;-47
2023/10/16 15:50:48;;;;;;;232.57;71.03;;;;;;;;;;4973124;28;20475;-48
2023/10/16 15:53:14;;;;;;;233.70;73.10;;;;;;;;;;4972923;28;20780;-47
2023/10/16 15:55:40;;;;;;;235.80;75.17;;;;;;;;;;4972844;28;20868;-47
2023/10/16 15:58:07;;;;;;;233.73;71.70;;;;;;;;;;4973019;28;20413;-48
2023/10/16 16:00:41;;;;;;;231.52;68.53;;;;;;;;;;4973038;28;20779;-48
2023/10/16 16:03:10;;;;;;;232.10;70.47;;;;;;;;;;4972908;28;20191;-48
2023/10/16 16:05:37;;;;;;;233.83;72.10;;;;;;;;;;4972867;28;20461;-47
2023/10/16 16:08:04;;;;;;;237.60;77.90;;;;;;;;;;4972868;28;20452;-52
2023/10/16 16:10:34;;;;;;;230.33;68.57;;;;;;;;;;4972503;28;20839;-46
2023/10/16 16:13:01;;;;;;;233.40;69.13;;;;;;;;;;4972685;28;20536;-47